Time;durP1;ratioP1;P1;durP2;ratioP2;P2;SDS_P1;SDS_P2;PMS_P1;PMS_P2;Temp;Humidity;BMP_temperature;BMP_pressure;BME280_temperature;BME280_humidity;BME280_pressure;Samples;Min_cycle;Max_cycle;Signal;HPM_P1;HPM_P2
2023/03/11 00:00:18;;;;;;;1.45;0.68;;;18.10;57.50;;;;;;5070064;28;20044;-62
2023/03/11 00:02:46;;;;;;;1.05;0.70;;;18.10;57.60;;;;;;5069872;28;20048;-62
2023/03/11 00:05:16;;;;;;;1.02;0.65;;;18.10;57.50;;;;;;5070053;28;20050;-62
2023/03/11 00:07:43;;;;;;;0.88;0.30;;;18.10;57.50;;;;;;5051521;28;20055;-62
2023/03/11 00:10:15;;;;;;;1.15;0.38;;;18.10;57.50;;;;;;5069259;28;20054;-62
2023/03/11 00:12:42;;;;;;;1.20;0.88;;;18.20;57.40;;;;;;5069844;28;20041;-62
2023/03/11 00:15:10;;;;;;;1.25;0.90;;;18.20;57.40;;;;;;5069207;28;20053;-62
2023/03/11 00:17:38;;;;;;;1.58;0.80;;;18.20;57.30;;;;;;5051191;28;20055;-64
2023/03/11 00:20:07;;;;;;;0.90;0.50;;;18.30;57.30;;;;;;5051413;28;20064;-62
2023/03/11 00:22:34;;;;;;;1.40;0.70;;;18.30;57.20;;;;;;5051660;28;20063;-62
2023/03/11 00:25:01;;;;;;;1.20;0.70;;;18.30;57.00;;;;;;5058543;28;20053;-62
2023/03/11 00:27:27;;;;;;;1.55;0.88;;;18.40;57.00;;;;;;5049239;28;20053;-62
2023/03/11 00:29:54;;;;;;;1.17;0.30;;;18.40;57.00;;;;;;5031614;28;20049;-62
2023/03/11 00:32:21;;;;;;;1.38;0.45;;;18.40;57.00;;;;;;5031538;28;20045;-62
2023/03/11 00:34:50;;;;;;;1.20;0.70;;;18.40;56.90;;;;;;5031514;28;20505;-62
2023/03/11 00:37:17;;;;;;;1.20;0.32;;;18.40;56.90;;;;;;5031441;28;20053;-62
2023/03/11 00:39:43;;;;;;;1.58;0.25;;;18.50;56.80;;;;;;5031452;28;20778;-62
2023/03/11 00:42:10;;;;;;;1.40;0.20;;;18.60;56.80;;;;;;5068847;28;20059;-62
2023/03/11 00:44:37;;;;;;;1.15;0.35;;;18.60;56.60;;;;;;5051134;28;20049;-62
2023/03/11 00:47:04;;;;;;;1.13;0.45;;;18.70;56.50;;;;;;5069530;28;20079;-62
2023/03/11 00:49:31;;;;;;;1.10;0.70;;;18.80;56.50;;;;;;5069095;28;20067;-62
2023/03/11 00:52:00;;;;;;;1.30;1.00;;;18.80;56.40;;;;;;5050958;28;20056;-62
2023/03/11 00:54:28;;;;;;;1.20;0.73;;;18.80;56.30;;;;;;5050825;28;20055;-61
2023/03/11 00:56:55;;;;;;;1.63;0.63;;;18.80;56.30;;;;;;5061443;28;20045;-62
2023/03/11 00:59:22;;;;;;;1.85;0.80;;;18.80;56.30;;;;;;5050995;28;20056;-62
2023/03/11 01:01:49;;;;;;;1.00;0.30;;;18.80;56.30;;;;;;5051371;28;20405;-62
2023/03/11 01:04:16;;;;;;;1.40;0.82;;;18.80;56.30;;;;;;5065314;28;20041;-62
2023/03/11 01:06:43;;;;;;;1.40;0.75;;;18.80;56.40;;;;;;5048866;28;20049;-62
2023/03/11 01:09:12;;;;;;;1.35;0.80;;;18.70;56.40;;;;;;5053025;28;20048;-62
2023/03/11 01:11:39;;;;;;;1.52;0.73;;;18.70;56.40;;;;;;5089070;28;20143;-62
2023/03/11 01:14:06;;;;;;;1.00;0.38;;;18.70;56.50;;;;;;5086839;28;20066;-62
2023/03/11 01:16:33;;;;;;;1.10;0.30;;;18.60;56.50;;;;;;5068700;28;20070;-62
2023/03/11 01:19:00;;;;;;;1.25;0.80;;;18.60;56.50;;;;;;5068868;28;20059;-62
2023/03/11 01:21:30;;;;;;;1.42;0.45;;;18.60;56.60;;;;;;5050679;28;20048;-62
2023/03/11 01:23:58;;;;;;;1.27;0.68;;;18.50;56.50;;;;;;5069168;28;20053;-62
2023/03/11 01:26:26;;;;;;;1.50;0.80;;;18.50;56.60;;;;;;5069081;28;20051;-62
2023/03/11 01:28:56;;;;;;;1.40;0.80;;;18.50;56.60;;;;;;5072340;28;20070;-62
2023/03/11 01:31:23;;;;;;;1.50;0.77;;;18.40;56.60;;;;;;5072253;28;20048;-62
2023/03/11 01:33:51;;;;;;;1.10;0.40;;;18.40;56.70;;;;;;5072527;28;20162;-63
2023/03/11 01:36:18;;;;;;;2.15;0.95;;;18.30;56.70;;;;;;5072892;28;20063;-62
2023/03/11 01:38:45;;;;;;;1.75;0.73;;;18.30;56.70;;;;;;5072602;28;20053;-62
2023/03/11 01:41:13;;;;;;;0.90;0.30;;;18.30;56.80;;;;;;5054013;28;20400;-62
2023/03/11 01:43:49;;;;;;;1.70;0.68;;;18.30;56.90;;;;;;5052346;28;20053;-62
2023/03/11 01:46:19;;;;;;;1.50;1.08;;;18.20;56.80;;;;;;5052330;28;20045;-62
2023/03/11 01:48:49;;;;;;;1.42;0.30;;;18.20;56.90;;;;;;5060294;28;20086;-61
2023/03/11 01:51:21;;;;;;;1.00;0.40;;;18.10;56.90;;;;;;5072324;28;20048;-62
2023/03/11 01:53:54;;;;;;;1.63;0.90;;;18.10;56.90;;;;;;5054916;28;20048;-62
2023/03/11 01:56:23;;;;;;;0.82;0.40;;;18.10;56.90;;;;;;5068398;28;20084;-62
2023/03/11 01:58:53;;;;;;;1.45;0.65;;;18.10;56.90;;;;;;5045740;28;20049;-62
2023/03/11 02:01:24;;;;;;;1.20;0.65;;;18.10;56.90;;;;;;5034186;28;20049;-62
2023/03/11 02:03:51;;;;;;;1.30;0.73;;;18.10;56.90;;;;;;5052496;28;20045;-62
2023/03/11 02:06:21;;;;;;;1.33;0.65;;;18.10;56.80;;;;;;5072295;28;20142;-62
2023/03/11 02:08:49;;;;;;;1.35;0.60;;;18.10;56.80;;;;;;5054816;28;20050;-62
2023/03/11 02:11:23;;;;;;;2.00;1.77;;;18.20;57.50;;;;;;5053850;28;20056;-62
2023/03/11 02:13:54;;;;;;;1.15;0.68;;;18.20;56.80;;;;;;5071957;28;20048;-62
2023/03/11 02:16:21;;;;;;;1.60;0.90;;;18.30;56.70;;;;;;5071966;28;20052;-62
2023/03/11 02:18:51;;;;;;;1.45;0.63;;;18.30;56.60;;;;;;5071762;28;20052;-62
2023/03/11 02:21:25;;;;;;;1.00;0.20;;;18.40;56.50;;;;;;5071993;28;20036;-62
2023/03/11 02:23:59;;;;;;;1.75;1.00;;;18.40;56.40;;;;;;5071472;28;20091;-62
2023/03/11 02:26:32;;;;;;;1.00;0.40;;;18.40;56.20;;;;;;5053519;28;20060;-62
2023/03/11 02:29:04;;;;;;;1.83;0.50;;;18.50;56.20;;;;;;5071492;28;20063;-62
2023/03/11 02:31:32;;;;;;;1.88;0.57;;;18.50;56.10;;;;;;5053375;28;20513;-62
2023/03/11 02:34:04;;;;;;;1.48;0.80;;;18.50;56.20;;;;;;5053696;28;20056;-62
2023/03/11 02:36:41;;;;;;;1.23;0.95;;;18.50;56.00;;;;;;5071188;28;20051;-62
2023/03/11 02:39:31;;;;;;;1.48;0.60;;;18.60;56.10;;;;;;5070456;28;20052;-62
2023/03/11 02:41:59;;;;;;;1.10;0.73;;;18.60;56.00;;;;;;5053652;28;20055;-62
2023/03/11 02:44:32;;;;;;;1.65;0.98;;;18.70;55.90;;;;;;5071178;28;20139;-62
2023/03/11 02:47:00;;;;;;;1.23;0.70;;;18.80;55.80;;;;;;5053289;28;20052;-62
2023/03/11 02:49:28;;;;;;;2.13;0.85;;;18.80;55.70;;;;;;5053239;28;20049;-62
2023/03/11 02:51:55;;;;;;;1.30;0.73;;;18.80;55.70;;;;;;5052644;28;20053;-62
2023/03/11 02:54:22;;;;;;;1.58;0.20;;;18.80;55.60;;;;;;5053212;28;20048;-62
2023/03/11 02:56:50;;;;;;;1.40;0.70;;;18.80;55.60;;;;;;5069321;28;20511;-62
2023/03/11 02:59:17;;;;;;;1.25;0.55;;;18.80;55.60;;;;;;5059140;28;20072;-62
2023/03/11 03:01:45;;;;;;;1.48;1.00;;;18.80;55.70;;;;;;5071102;28;20036;-62
2023/03/11 03:04:12;;;;;;;1.40;0.68;;;18.80;55.70;;;;;;5071034;28;20090;-62
2023/03/11 03:06:40;;;;;;;1.10;0.50;;;18.70;55.70;;;;;;5070873;28;20475;-62
2023/03/11 03:09:07;;;;;;;1.52;0.80;;;18.70;55.80;;;;;;5071090;28;20052;-62
2023/03/11 03:11:34;;;;;;;1.08;0.57;;;18.70;55.80;;;;;;5070496;28;20053;-62
2023/03/11 03:14:02;;;;;;;0.77;0.22;;;18.70;55.90;;;;;;5071028;28;20056;-62
2023/03/11 03:16:36;;;;;;;1.25;0.43;;;18.60;55.80;;;;;;5052899;28;20059;-62
2023/03/11 03:19:04;;;;;;;1.45;0.65;;;18.60;55.90;;;;;;5070749;28;20064;-62
2023/03/11 03:21:32;;;;;;;0.88;0.32;;;18.60;55.90;;;;;;5070723;28;20048;-62
2023/03/11 03:23:59;;;;;;;1.65;0.22;;;18.50;55.90;;;;;;5070571;28;20044;-62
2023/03/11 03:26:26;;;;;;;1.40;0.55;;;18.50;56.00;;;;;;5070406;28;20052;-62
2023/03/11 03:28:56;;;;;;;1.10;0.40;;;18.40;56.00;;;;;;5052129;28;20405;-61
2023/03/11 03:31:23;;;;;;;1.38;0.57;;;18.40;56.10;;;;;;5052394;28;20063;-62
2023/03/11 03:33:50;;;;;;;1.23;0.77;;;18.40;56.10;;;;;;5070443;28;20071;-62
2023/03/11 03:36:19;;;;;;;1.30;0.60;;;18.30;56.10;;;;;;5051847;28;20052;-62
2023/03/11 03:38:51;;;;;;;0.85;0.52;;;18.30;56.20;;;;;;5052518;28;20059;-62
2023/03/11 03:41:19;;;;;;;1.20;0.57;;;18.20;56.20;;;;;;5069901;28;20063;-62
2023/03/11 03:43:46;;;;;;;0.70;0.15;;;18.20;56.20;;;;;;5070321;28;20412;-62
2023/03/11 03:46:13;;;;;;;1.08;0.65;;;18.20;56.20;;;;;;5070004;28;20048;-62
2023/03/11 03:48:40;;;;;;;1.55;0.63;;;18.20;56.30;;;;;;5052411;28;20056;-62
2023/03/11 03:51:10;;;;;;;1.38;0.70;;;18.10;56.30;;;;;;5069032;28;20581;-62
2023/03/11 03:53:45;;;;;;;1.23;0.55;;;18.10;56.40;;;;;;5070674;28;20109;-62
2023/03/11 03:56:14;;;;;;;;;;;18.10;56.30;;;;;;5070389;28;20048;-62
2023/03/11 03:58:41;;;;;;;0.90;0.50;;;18.10;56.40;;;;;;5068585;28;19940;-62
2023/03/11 04:01:10;;;;;;;1.23;0.65;;;18.10;56.40;;;;;;5070085;28;20523;-62
2023/03/11 04:03:38;;;;;;;1.55;0.70;;;18.10;56.40;;;;;;5051875;28;20060;-62
2023/03/11 04:06:10;;;;;;;0.77;0.22;;;18.10;56.30;;;;;;5069513;28;20497;-62
2023/03/11 04:08:44;;;;;;;1.48;0.60;;;18.10;56.30;;;;;;5065475;28;20049;-62
2023/03/11 04:11:12;;;;;;;1.05;0.50;;;18.10;56.30;;;;;;5058566;28;20063;-62
2023/03/11 04:13:40;;;;;;;1.00;0.68;;;18.20;56.30;;;;;;5031974;28;20052;-62
2023/03/11 04:16:08;;;;;;;1.13;0.57;;;18.20;56.20;;;;;;5049378;28;20060;-62
2023/03/11 04:18:37;;;;;;;0.65;0.22;;;18.30;56.20;;;;;;5049630;28;20410;-62
2023/03/11 04:21:08;;;;;;;1.05;0.57;;;18.30;56.10;;;;;;5051550;28;20053;-62
2023/03/11 04:23:35;;;;;;;0.95;0.73;;;18.40;56.00;;;;;;5069858;28;20040;-62
2023/03/11 04:26:04;;;;;;;1.42;0.30;;;18.50;56.00;;;;;;5051612;28;20535;-62
2023/03/11 04:28:32;;;;;;;1.20;0.50;;;18.50;55.90;;;;;;5051480;28;20049;-62
2023/03/11 04:30:59;;;;;;;0.60;0.13;;;18.50;55.70;;;;;;5051254;28;20531;-62
2023/03/11 04:33:26;;;;;;;0.70;0.13;;;18.60;55.60;;;;;;5051072;28;20139;-62
2023/03/11 04:35:53;;;;;;;1.98;0.70;;;18.70;55.50;;;;;;5069411;28;20053;-62
2023/03/11 04:38:21;;;;;;;1.48;0.98;;;18.80;55.40;;;;;;5051164;28;20056;-62
2023/03/11 04:40:48;;;;;;;0.93;0.43;;;18.80;55.30;;;;;;5069487;28;20048;-62
2023/03/11 04:43:20;;;;;;;1.00;0.60;;;18.90;55.30;;;;;;5051045;28;20040;-62
2023/03/11 04:45:51;;;;;;;1.30;0.70;;;18.90;55.20;;;;;;5069243;28;20508;-62
2023/03/11 04:48:18;;;;;;;0.75;0.32;;;18.90;55.20;;;;;;5051191;28;20044;-62
2023/03/11 04:50:47;;;;;;;1.00;0.40;;;18.90;55.20;;;;;;5069343;28;20127;-62
2023/03/11 04:53:19;;;;;;;1.77;0.52;;;18.90;55.20;;;;;;5069316;28;20061;-62
2023/03/11 04:55:47;;;;;;;0.90;0.57;;;18.90;55.30;;;;;;5051255;28;20149;-62
2023/03/11 04:58:14;;;;;;;1.05;0.47;;;18.80;55.30;;;;;;5069542;28;20056;-62
2023/03/11 05:00:48;;;;;;;0.98;0.35;;;18.80;55.40;;;;;;5051378;28;20428;-62
2023/03/11 05:03:16;;;;;;;0.70;0.50;;;18.70;55.40;;;;;;5072078;28;20097;-62
2023/03/11 05:05:44;;;;;;;1.13;0.60;;;18.70;55.50;;;;;;5046233;28;20492;-62
2023/03/11 05:08:12;;;;;;;0.82;0.50;;;18.70;55.50;;;;;;5058136;28;20489;-62
2023/03/11 05:10:40;;;;;;;0.88;0.30;;;18.60;55.50;;;;;;5040450;28;20497;-62
2023/03/11 05:13:07;;;;;;;0.90;0.52;;;18.60;55.60;;;;;;5063617;28;20048;-62
2023/03/11 05:15:36;;;;;;;0.70;0.10;;;18.50;55.70;;;;;;5072940;28;20370;-62
2023/03/11 05:18:04;;;;;;;1.08;0.50;;;18.50;55.70;;;;;;5072713;28;20091;-62
2023/03/11 05:20:33;;;;;;;0.98;0.60;;;18.40;55.70;;;;;;5072797;28;20056;-62
2023/03/11 05:23:00;;;;;;;1.35;1.05;;;18.40;55.70;;;;;;5054644;28;20054;-62
2023/03/11 05:25:28;;;;;;;1.02;0.60;;;18.40;55.80;;;;;;5055274;28;20485;-62
2023/03/11 05:27:55;;;;;;;1.33;0.50;;;18.30;55.70;;;;;;5072704;28;20041;-62
2023/03/11 05:30:23;;;;;;;1.27;0.55;;;18.30;55.90;;;;;;5072491;28;20058;-62
2023/03/11 05:32:56;;;;;;;1.42;0.45;;;18.30;56.00;;;;;;5072778;28;20126;-62
2023/03/11 05:35:24;;;;;;;0.98;0.30;;;18.20;55.90;;;;;;5072328;28;20052;-62
2023/03/11 05:37:52;;;;;;;0.90;0.40;;;18.20;56.00;;;;;;5072852;28;20049;-62
2023/03/11 05:40:23;;;;;;;1.10;0.50;;;18.10;56.00;;;;;;5054420;28;20463;-62
2023/03/11 05:42:52;;;;;;;1.13;0.73;;;18.10;56.10;;;;;;5072914;28;20048;-62
2023/03/11 05:45:25;;;;;;;1.23;0.50;;;18.00;56.00;;;;;;5072482;28;20048;-62
2023/03/11 05:47:53;;;;;;;0.98;0.40;;;18.10;56.20;;;;;;5054061;28;20048;-62
2023/03/11 05:50:24;;;;;;;1.02;0.40;;;18.00;56.10;;;;;;5054708;28;20057;-62
2023/03/11 05:52:52;;;;;;;1.15;0.40;;;18.00;56.10;;;;;;5072448;28;20063;-62
2023/03/11 05:55:29;;;;;;;0.93;0.20;;;18.10;56.20;;;;;;5072646;28;20048;-62
2023/03/11 05:58:07;;;;;;;1.00;0.40;;;18.10;56.10;;;;;;5072053;28;20485;-62
2023/03/11 06:00:35;;;;;;;1.05;0.50;;;18.10;56.10;;;;;;5072491;28;20063;-62
2023/03/11 06:03:17;;;;;;;1.67;0.52;;;18.10;56.10;;;;;;5053206;28;20051;-62
2023/03/11 06:05:50;;;;;;;0.80;0.50;;;18.10;56.10;;;;;;5051258;28;20060;-62
2023/03/11 06:08:20;;;;;;;0.90;0.40;;;18.20;56.00;;;;;;5071651;28;20145;-62
2023/03/11 06:10:48;;;;;;;1.85;0.55;;;18.30;56.00;;;;;;5054034;28;20048;-63
2023/03/11 06:13:15;;;;;;;0.70;0.20;;;18.30;55.90;;;;;;5053472;28;20421;-62
2023/03/11 06:15:48;;;;;;;1.20;0.80;;;18.40;55.80;;;;;;5053087;28;20048;-62
2023/03/11 06:18:15;;;;;;;1.05;0.47;;;18.40;55.70;;;;;;5071790;28;20154;-62
2023/03/11 06:20:42;;;;;;;0.80;0.22;;;18.50;55.50;;;;;;5071554;28;20428;-62
2023/03/11 06:23:10;;;;;;;1.08;0.43;;;18.50;55.40;;;;;;5071935;28;20068;-62
2023/03/11 06:25:37;;;;;;;0.77;0.40;;;18.70;55.30;;;;;;5054050;28;20052;-62
2023/03/11 06:28:05;;;;;;;1.02;0.47;;;18.70;55.80;;;;;;5053486;28;20056;-62
2023/03/11 06:30:32;;;;;;;0.80;0.68;;;18.80;55.10;;;;;;5054047;28;20060;-62
2023/03/11 06:32:59;;;;;;;1.08;0.50;;;18.80;54.90;;;;;;5053293;28;20056;-62
2023/03/11 06:35:26;;;;;;;0.85;0.20;;;18.90;54.90;;;;;;5057043;28;20057;-62
2023/03/11 06:37:53;;;;;;;0.80;0.50;;;18.80;54.80;;;;;;5060015;28;20075;-62
2023/03/11 06:40:21;;;;;;;1.27;0.50;;;18.90;54.90;;;;;;5071646;28;20138;-62
2023/03/11 06:42:48;;;;;;;1.08;0.22;;;18.90;54.80;;;;;;5053556;28;20413;-62
2023/03/11 06:45:15;;;;;;;0.63;0.40;;;18.90;54.80;;;;;;5070898;28;20052;-62
2023/03/11 06:47:42;;;;;;;0.98;0.40;;;18.80;54.80;;;;;;5053339;28;20048;-62
2023/03/11 06:50:10;;;;;;;0.82;0.50;;;18.80;54.90;;;;;;5071710;28;20470;-62
2023/03/11 06:52:37;;;;;;;0.70;0.40;;;18.80;54.90;;;;;;5071847;28;20613;-62
2023/03/11 06:55:05;;;;;;;1.08;0.40;;;18.70;54.90;;;;;;5072069;28;20052;-62
2023/03/11 06:57:34;;;;;;;0.77;0.32;;;18.70;55.00;;;;;;5071876;28;20493;-62
2023/03/11 07:00:01;;;;;;;1.00;0.60;;;18.60;55.10;;;;;;5071873;28;20083;-62
2023/03/11 07:02:28;;;;;;;0.63;0.20;;;18.60;55.40;;;;;;5071629;28;20432;-62
2023/03/11 07:04:55;;;;;;;0.90;0.45;;;18.60;55.90;;;;;;5053740;28;20063;-62
2023/03/11 07:07:22;;;;;;;0.90;0.40;;;18.60;55.30;;;;;;5071898;28;20055;-62
2023/03/11 07:09:49;;;;;;;1.20;0.55;;;18.50;55.20;;;;;;5053828;28;20052;-62
2023/03/11 07:12:16;;;;;;;1.20;0.50;;;18.50;55.30;;;;;;5047586;28;20053;-62
2023/03/11 07:14:45;;;;;;;1.00;0.63;;;18.40;55.20;;;;;;5051190;28;20044;-62
2023/03/11 07:17:12;;;;;;;0.85;0.10;;;18.40;55.30;;;;;;5069600;28;20056;-62
2023/03/11 07:19:39;;;;;;;1.08;0.38;;;18.40;55.40;;;;;;5071202;28;20518;-62
2023/03/11 07:22:06;;;;;;;1.42;1.10;;;18.40;55.40;;;;;;5071322;28;20087;-62
2023/03/11 07:24:33;;;;;;;1.17;0.45;;;18.30;55.40;;;;;;5071355;28;20063;-62
2023/03/11 07:27:00;;;;;;;1.15;0.82;;;18.30;55.40;;;;;;5071162;28;20052;-62
2023/03/11 07:29:28;;;;;;;0.90;0.45;;;18.30;55.50;;;;;;5071239;28;20060;-62
2023/03/11 07:31:56;;;;;;;0.77;0.40;;;18.20;55.40;;;;;;5053392;28;20187;-62
2023/03/11 07:34:23;;;;;;;1.10;0.55;;;18.20;55.50;;;;;;5053000;28;20053;-62
2023/03/11 07:36:50;;;;;;;0.90;0.35;;;18.20;55.50;;;;;;5053494;28;20058;-62
2023/03/11 07:39:18;;;;;;;1.13;0.55;;;18.20;55.50;;;;;;5071088;28;20044;-62
2023/03/11 07:41:45;;;;;;;1.02;0.60;;;18.20;55.40;;;;;;5071334;28;20049;-62
2023/03/11 07:44:14;;;;;;;0.80;0.50;;;18.20;55.40;;;;;;5070661;28;20070;-62
2023/03/11 07:46:41;;;;;;;1.45;0.40;;;18.20;55.40;;;;;;5052849;28;20052;-62
2023/03/11 07:49:10;;;;;;;0.80;0.50;;;18.20;55.30;;;;;;5071103;28;20055;-62
2023/03/11 07:51:39;;;;;;;1.38;0.40;;;18.20;55.30;;;;;;5070951;28;20051;-62
2023/03/11 07:54:06;;;;;;;0.90;0.40;;;18.20;55.20;;;;;;5070607;28;20569;-62
2023/03/11 07:56:34;;;;;;;0.90;0.40;;;18.30;55.30;;;;;;5053002;28;20143;-62
2023/03/11 07:59:03;;;;;;;1.15;0.38;;;18.30;55.20;;;;;;5052837;28;20075;-62
2023/03/11 08:01:35;;;;;;;1.17;0.40;;;18.30;55.20;;;;;;5052928;28;20067;-62
2023/03/11 08:04:03;;;;;;;1.25;0.50;;;18.30;55.10;;;;;;5032933;28;20124;-62
2023/03/11 08:06:33;;;;;;;0.73;0.32;;;18.40;55.10;;;;;;5050517;28;20509;-62
2023/03/11 08:09:02;;;;;;;1.27;0.55;;;18.40;55.00;;;;;;5050551;28;20068;-62
2023/03/11 08:11:30;;;;;;;1.08;0.68;;;18.50;54.90;;;;;;5050352;28;20680;-62
2023/03/11 08:13:57;;;;;;;0.82;0.40;;;18.60;54.70;;;;;;5050290;28;20092;-62
2023/03/11 08:16:25;;;;;;;1.17;0.68;;;18.70;54.70;;;;;;5050414;28;20053;-62
2023/03/11 08:18:53;;;;;;;0.50;0.13;;;18.70;54.60;;;;;;5050238;28;20063;-62
2023/03/11 08:21:24;;;;;;;0.73;0.50;;;18.90;54.50;;;;;;5050682;28;20047;-62
2023/03/11 08:23:53;;;;;;;0.50;0.10;;;18.90;54.30;;;;;;5032377;28;20402;-62
2023/03/11 08:26:21;;;;;;;1.17;0.50;;;19.00;54.20;;;;;;5032447;28;20057;-62
2023/03/11 08:28:49;;;;;;;1.00;0.40;;;19.00;54.10;;;;;;5050685;28;20049;-62
2023/03/11 08:31:17;;;;;;;0.60;0.10;;;19.10;54.10;;;;;;5050190;28;20053;-62
2023/03/11 08:33:45;;;;;;;0.55;0.20;;;19.10;54.00;;;;;;5032332;28;20049;-62
2023/03/11 08:36:12;;;;;;;0.93;0.40;;;19.10;54.00;;;;;;5050126;28;20146;-62
2023/03/11 08:38:39;;;;;;;1.20;0.13;;;19.10;54.10;;;;;;5050039;28;20051;-62
2023/03/11 08:41:08;;;;;;;0.70;0.40;;;19.10;54.10;;;;;;5050072;28;20055;-62
2023/03/11 08:43:35;;;;;;;0.80;0.47;;;19.00;54.00;;;;;;5032317;28;20049;-62
2023/03/11 08:46:05;;;;;;;0.77;0.40;;;19.10;54.20;;;;;;5049949;28;20056;-62
2023/03/11 08:48:34;;;;;;;0.95;0.40;;;19.00;54.10;;;;;;5049770;28;20485;-62
2023/03/11 08:51:01;;;;;;;0.57;0.20;;;19.00;54.20;;;;;;5032018;28;20445;-62
2023/03/11 08:53:28;;;;;;;0.80;0.43;;;18.90;54.30;;;;;;5049898;28;20053;-62
2023/03/11 08:55:55;;;;;;;1.17;0.63;;;18.90;54.40;;;;;;5049993;28;20056;-62
2023/03/11 08:58:24;;;;;;;0.75;0.40;;;18.90;54.50;;;;;;5049824;28;20053;-62
2023/03/11 09:00:51;;;;;;;0.95;0.70;;;18.90;54.50;;;;;;5032196;28;20052;-62
2023/03/11 09:03:18;;;;;;;0.68;0.20;;;18.80;54.60;;;;;;5049728;28;20052;-62
2023/03/11 09:05:45;;;;;;;0.45;0.05;;;18.80;54.70;;;;;;5031830;28;20425;-62
2023/03/11 09:08:12;;;;;;;0.85;0.40;;;18.70;54.70;;;;;;5049734;28;20060;-62
2023/03/11 09:10:39;;;;;;;0.60;0.30;;;18.70;54.70;;;;;;5050070;28;20053;-62
2023/03/11 09:13:06;;;;;;;0.82;0.28;;;18.70;54.80;;;;;;5031733;28;20147;-62
2023/03/11 09:15:35;;;;;;;1.00;0.22;;;18.70;54.80;;;;;;5049736;28;20480;-62
2023/03/11 09:18:02;;;;;;;0.85;0.60;;;18.60;54.80;;;;;;5031958;28;20059;-62
2023/03/11 09:20:29;;;;;;;0.50;0.10;;;18.60;54.90;;;;;;5049382;28;20547;-62
2023/03/11 09:22:56;;;;;;;1.50;0.50;;;18.60;54.80;;;;;;5032026;28;20527;-62
2023/03/11 09:25:23;;;;;;;0.90;0.35;;;18.50;54.90;;;;;;5049607;28;20049;-62
2023/03/11 09:27:50;;;;;;;0.50;0.10;;;18.50;55.00;;;;;;5031988;28;20096;-62
2023/03/11 09:30:17;;;;;;;0.77;0.40;;;18.50;55.00;;;;;;5049792;28;20092;-62
2023/03/11 09:32:45;;;;;;;1.02;0.47;;;18.50;55.10;;;;;;5049169;28;20045;-62
2023/03/11 09:35:13;;;;;;;0.65;0.13;;;18.40;55.00;;;;;;5031756;28;20045;-62
2023/03/11 09:37:39;;;;;;;0.90;0.50;;;18.40;55.10;;;;;;5031539;28;20053;-62
2023/03/11 09:40:08;;;;;;;1.10;0.30;;;18.40;55.10;;;;;;5049672;28;20053;-62
2023/03/11 09:42:43;;;;;;;0.70;0.40;;;18.40;55.20;;;;;;5031513;28;20059;-62
2023/03/11 09:45:16;;;;;;;0.80;0.40;;;18.40;55.20;;;;;;5049236;28;20065;-62
2023/03/11 09:47:56;;;;;;;1.30;0.10;;;18.30;55.20;;;;;;5049611;28;20047;-62
2023/03/11 09:50:32;;;;;;;1.70;0.47;;;18.30;55.20;;;;;;5051801;28;20055;-62
2023/03/11 09:53:10;;;;;;;1.48;0.45;;;18.30;55.20;;;;;;5035135;28;20148;-62
2023/03/11 09:55:44;;;;;;;1.00;0.40;;;18.30;55.30;;;;;;5035217;28;20057;-62
2023/03/11 09:58:16;;;;;;;1.55;0.13;;;18.30;55.30;;;;;;5035092;28;20060;-62
2023/03/11 10:00:44;;;;;;;0.65;0.10;;;18.30;55.30;;;;;;5053036;28;20084;-62
2023/03/11 10:03:26;;;;;;;1.13;0.95;;;18.30;55.30;;;;;;5053216;28;20124;-62
2023/03/11 10:05:58;;;;;;;1.25;0.50;;;18.40;55.30;;;;;;5052788;28;20517;-62
2023/03/11 10:08:32;;;;;;;0.60;0.30;;;18.40;55.20;;;;;;5035067;28;20055;-62
2023/03/11 10:11:25;;;;;;;1.25;0.95;;;18.50;55.20;;;;;;5035020;28;20056;-62
2023/03/11 10:14:05;;;;;;;1.02;0.57;;;18.50;55.10;;;;;;5034624;28;20056;-62
2023/03/11 10:16:39;;;;;;;1.33;0.45;;;18.60;55.00;;;;;;5034616;28;20052;-61
2023/03/11 10:19:21;;;;;;;1.00;0.82;;;18.70;54.80;;;;;;5052470;28;20065;-62
2023/03/11 10:21:58;;;;;;;1.38;0.22;;;18.80;54.80;;;;;;5052489;28;20052;-62
2023/03/11 10:24:42;;;;;;;0.85;0.30;;;18.90;54.70;;;;;;5052770;28;20398;-62
2023/03/11 10:27:14;;;;;;;1.15;0.70;;;19.00;54.60;;;;;;5052175;28;20041;-62
2023/03/11 10:29:51;;;;;;;0.88;0.60;;;19.10;54.50;;;;;;5052728;28;20045;-62
2023/03/11 10:32:24;;;;;;;1.52;0.43;;;19.10;54.50;;;;;;5034626;28;20063;-62
2023/03/11 10:34:57;;;;;;;0.60;0.30;;;19.10;54.50;;;;;;5052337;28;20057;-62
2023/03/11 10:37:27;;;;;;;0.50;0.10;;;19.10;54.40;;;;;;5037516;28;20060;-62
2023/03/11 10:39:55;;;;;;;1.17;0.35;;;19.10;54.40;;;;;;5072070;28;20139;-62
2023/03/11 10:42:25;;;;;;;0.95;0.47;;;19.10;54.30;;;;;;5054449;28;20053;-62
2023/03/11 10:44:52;;;;;;;1.55;0.68;;;19.20;54.40;;;;;;5072154;28;20044;-63
2023/03/11 10:47:21;;;;;;;1.15;0.25;;;19.10;54.40;;;;;;5054312;28;20398;-62
2023/03/11 10:49:48;;;;;;;1.00;0.22;;;19.10;54.50;;;;;;5072026;28;20422;-63
2023/03/11 10:52:18;;;;;;;0.90;0.40;;;19.10;54.50;;;;;;5054151;28;20051;-63
2023/03/11 10:54:47;;;;;;;0.60;0.22;;;19.10;54.50;;;;;;5071987;28;20056;-63
2023/03/11 10:57:24;;;;;;;1.10;0.45;;;19.10;54.60;;;;;;5054275;28;20052;-63
2023/03/11 10:59:53;;;;;;;1.00;0.40;;;19.10;54.60;;;;;;5059795;28;20180;-63
2023/03/11 11:02:26;;;;;;;0.75;0.40;;;19.10;54.60;;;;;;5051861;28;20049;-63
2023/03/11 11:05:23;;;;;;;0.82;0.50;;;19.10;54.70;;;;;;5034202;28;20523;-63
2023/03/11 11:08:02;;;;;;;1.08;0.38;;;19.00;54.70;;;;;;5034141;28;20060;-63
2023/03/11 11:10:30;;;;;;;0.90;0.50;;;19.00;54.80;;;;;;5033818;28;20061;-62
2023/03/11 11:12:59;;;;;;;1.00;0.60;;;19.00;54.80;;;;;;5033797;28;20048;-63
2023/03/11 11:15:29;;;;;;;1.00;0.50;;;18.90;54.80;;;;;;5033272;28;20061;-63
2023/03/11 11:17:58;;;;;;;1.23;0.43;;;19.00;54.90;;;;;;5051898;28;20068;-63
2023/03/11 11:20:28;;;;;;;1.17;0.25;;;18.90;54.80;;;;;;5033322;28;20064;-63
2023/03/11 11:22:58;;;;;;;0.52;0.10;;;18.90;54.80;;;;;;5051321;28;20061;-63
2023/03/11 11:25:32;;;;;;;1.27;0.38;;;18.90;54.90;;;;;;5051274;28;20055;-63
2023/03/11 11:28:04;;;;;;;1.33;0.55;;;18.90;54.90;;;;;;5033485;28;20092;-63
2023/03/11 11:30:32;;;;;;;1.10;0.40;;;18.80;54.90;;;;;;5033678;28;20063;-63
2023/03/11 11:33:22;;;;;;;0.70;0.25;;;18.80;54.90;;;;;;5051016;28;20458;-63
2023/03/11 11:35:51;;;;;;;1.88;0.40;;;18.80;54.90;;;;;;5051044;28;20152;-63
2023/03/11 11:38:23;;;;;;;1.00;0.30;;;18.80;55.00;;;;;;5051082;28;20049;-63
2023/03/11 11:40:51;;;;;;;0.90;0.32;;;18.80;55.00;;;;;;5051176;28;20060;-63
2023/03/11 11:43:20;;;;;;;1.02;0.50;;;18.80;55.10;;;;;;5051020;28;20049;-63
2023/03/11 11:45:53;;;;;;;1.20;0.35;;;18.80;55.10;;;;;;5050787;28;20132;-63
2023/03/11 11:48:26;;;;;;;0.93;0.20;;;18.70;55.00;;;;;;5033471;28;20422;-63
2023/03/11 11:50:57;;;;;;;1.15;0.40;;;18.70;55.10;;;;;;5050898;28;20049;-63
2023/03/11 11:53:32;;;;;;;0.90;0.50;;;18.70;55.10;;;;;;5050926;28;20053;-63
2023/03/11 11:55:59;;;;;;;1.23;0.52;;;18.70;55.10;;;;;;5032760;28;20060;-63
2023/03/11 11:58:27;;;;;;;0.60;0.13;;;18.70;55.10;;;;;;5050946;28;20045;-63
2023/03/11 12:01:04;;;;;;;0.98;0.55;;;18.70;55.20;;;;;;5050542;28;20095;-63
2023/03/11 12:04:07;;;;;;;0.82;0.55;;;18.70;55.10;;;;;;5032832;28;20509;-63
2023/03/11 12:06:46;;;;;;;1.20;0.70;;;18.70;55.10;;;;;;5050853;28;20049;-63
2023/03/11 12:09:23;;;;;;;0.52;0.15;;;18.70;55.10;;;;;;5050412;28;20475;-63
2023/03/11 12:11:56;;;;;;;1.17;0.52;;;18.70;55.10;;;;;;5031821;28;20094;-63
2023/03/11 12:14:28;;;;;;;0.80;0.40;;;18.70;55.20;;;;;;5050308;28;20052;-63
2023/03/11 12:16:58;;;;;;;1.40;0.25;;;18.70;55.10;;;;;;5032659;28;20387;-63
2023/03/11 12:19:35;;;;;;;1.00;0.60;;;18.70;55.10;;;;;;5032172;28;20048;-63
2023/03/11 12:22:43;;;;;;;1.77;0.55;;;18.70;55.10;;;;;;5050442;28;20142;-63
2023/03/11 12:25:33;;;;;;;1.60;0.55;;;18.70;55.00;;;;;;5013005;28;20477;-63
2023/03/11 12:28:13;;;;;;;1.40;0.60;;;18.70;55.00;;;;;;5050459;28;20045;-63
2023/03/11 12:30:44;;;;;;;1.50;0.30;;;18.70;55.00;;;;;;5050093;28;20099;-63
2023/03/11 12:33:16;;;;;;;1.90;0.40;;;18.70;55.00;;;;;;5032214;28;20068;-62
2023/03/11 12:35:52;;;;;;;1.10;0.40;;;18.70;55.00;;;;;;5050334;28;20529;-63
2023/03/11 12:38:32;;;;;;;0.73;0.10;;;18.70;55.00;;;;;;5050310;28;20049;-63
2023/03/11 12:41:04;;;;;;;1.15;0.57;;;18.70;54.90;;;;;;5032297;28;20099;-62
2023/03/11 12:44:10;;;;;;;1.23;0.40;;;18.80;55.00;;;;;;5050047;28;20045;-63
2023/03/11 12:47:18;;;;;;;1.20;0.25;;;18.70;54.80;;;;;;5031978;28;20060;-63
2023/03/11 12:49:46;;;;;;;1.15;0.15;;;18.70;54.80;;;;;;5050157;28;20191;-62
2023/03/11 12:52:38;;;;;;;2.30;0.55;;;18.70;54.80;;;;;;5032057;28;20057;-62
2023/03/11 12:55:38;;;;;;;1.38;0.20;;;18.80;54.80;;;;;;5043196;28;20404;-62
2023/03/11 12:58:37;;;;;;;1.42;0.50;;;18.80;54.80;;;;;;5049589;28;20071;-63
2023/03/11 13:01:33;;;;;;;1.15;0.40;;;18.80;54.80;;;;;;5049759;28;20045;-63
2023/03/11 13:04:14;;;;;;;1.23;0.50;;;18.80;54.80;;;;;;5031877;28;20053;-63